createdAt,value
2022-09-01T00:01:50.714Z,12.78
2022-09-01T00:04:28.905Z,12.77
2022-09-01T00:06:55.839Z,12.77
2022-09-01T00:09:24.100Z,12.72
2022-09-01T00:11:53.439Z,12.68
2022-09-01T00:14:30.833Z,12.68
2022-09-01T00:17:00.154Z,12.69
2022-09-01T00:19:27.596Z,12.70
2022-09-01T00:21:55.633Z,12.68
2022-09-01T00:24:22.793Z,12.72
2022-09-01T00:26:49.538Z,12.72
2022-09-01T00:29:16.574Z,12.69
2022-09-01T00:31:43.805Z,12.61
2022-09-01T00:34:10.589Z,12.54
2022-09-01T00:36:37.698Z,12.53
2022-09-01T00:39:05.625Z,12.54
2022-09-01T00:41:34.771Z,12.52
2022-09-01T00:44:02.866Z,12.46
2022-09-01T00:46:33.810Z,12.43
2022-09-01T00:49:17.702Z,12.44
2022-09-01T00:51:48.531Z,12.47
2022-09-01T00:54:20.129Z,12.43
2022-09-01T00:56:48.421Z,12.40
2022-09-01T00:59:24.835Z,12.40
2022-09-01T01:01:51.463Z,12.46
2022-09-01T01:04:18.099Z,12.50
2022-09-01T01:06:50.536Z,12.47
2022-09-01T01:09:20.516Z,12.43
2022-09-01T01:11:47.800Z,12.44
2022-09-01T01:14:17.399Z,12.42
2022-09-01T01:16:46.783Z,12.38
2022-09-01T01:19:44.886Z,12.43
2022-09-01T01:22:37.013Z,12.39
2022-09-01T01:25:04.058Z,12.33
2022-09-01T01:27:35.789Z,12.32
2022-09-01T01:30:11.847Z,12.36
2022-09-01T01:32:43.823Z,12.43
2022-09-01T01:35:14.962Z,12.49
2022-09-01T01:37:48.964Z,12.48
2022-09-01T01:40:18.774Z,12.51
2022-09-01T01:42:48.270Z,12.54
2022-09-01T01:45:17.887Z,12.48
2022-09-01T01:47:56.445Z,12.46
2022-09-01T01:50:35.668Z,12.43
2022-09-01T01:53:11.047Z,12.46
2022-09-01T01:55:39.361Z,12.48
2022-09-01T01:58:08.177Z,12.44
2022-09-01T02:00:35.128Z,12.42
2022-09-01T02:03:01.799Z,12.42
2022-09-01T02:05:32.217Z,12.40
2022-09-01T02:08:04.764Z,12.40
2022-09-01T02:10:52.251Z,12.31
2022-09-01T02:13:26.155Z,12.27
2022-09-01T02:15:55.523Z,12.24
2022-09-01T02:18:26.415Z,12.25
2022-09-01T02:20:53.862Z,12.22
2022-09-01T02:23:24.549Z,12.22
2022-09-01T02:26:15.148Z,12.26
2022-09-01T02:28:43.726Z,12.25
2022-09-01T02:31:11.628Z,12.25
2022-09-01T02:33:40.122Z,12.30
2022-09-01T02:36:13.979Z,12.33
2022-09-01T02:38:46.692Z,12.24
2022-09-01T02:41:14.520Z,12.24
2022-09-01T02:43:46.402Z,12.25
2022-09-01T02:46:14.828Z,12.27
2022-09-01T02:48:46.225Z,12.30
2022-09-01T02:51:16.044Z,12.23
2022-09-01T02:53:44.501Z,12.25
2022-09-01T02:56:15.438Z,12.21
2022-09-01T02:58:47.330Z,12.21
2022-09-01T03:01:22.769Z,12.20
2022-09-01T03:03:50.461Z,12.25
2022-09-01T03:06:21.089Z,12.25
2022-09-01T03:08:48.444Z,12.20
2022-09-01T03:11:15.371Z,12.22
2022-09-01T03:13:42.810Z,12.26
2022-09-01T03:16:10.771Z,12.23
2022-09-01T03:18:38.481Z,12.20
2022-09-01T03:21:08.497Z,12.14
2022-09-01T03:23:36.053Z,12.07
2022-09-01T03:26:03.047Z,12.02
2022-09-01T03:28:30.150Z,12.02
2022-09-01T03:30:58.160Z,11.94
2022-09-01T03:33:27.053Z,11.84
2022-09-01T03:35:54.429Z,11.76
2022-09-01T03:38:23.073Z,11.78
2022-09-01T03:41:02.269Z,11.79
2022-09-01T03:43:35.780Z,11.79
2022-09-01T03:46:03.305Z,11.72
2022-09-01T03:48:32.285Z,11.69
2022-09-01T03:51:03.294Z,11.68
2022-09-01T03:53:35.160Z,11.64
2022-09-01T03:56:04.251Z,11.56
2022-09-01T03:58:31.536Z,11.50
2022-09-01T04:01:02.057Z,11.46
2022-09-01T04:03:32.097Z,11.45
2022-09-01T04:06:00.950Z,11.37
2022-09-01T04:08:32.294Z,11.28
2022-09-01T04:11:05.245Z,11.27
2022-09-01T04:13:37.310Z,11.20
2022-09-01T04:16:10.704Z,11.16
2022-09-01T04:18:37.566Z,11.22
2022-09-01T04:21:07.249Z,11.17
2022-09-01T04:23:37.182Z,11.12
2022-09-01T04:26:09.132Z,11.04
2022-09-01T04:28:39.601Z,11.00
2022-09-01T04:31:09.315Z,10.99
2022-09-01T04:33:40.074Z,10.98
2022-09-01T04:36:14.545Z,10.96
2022-09-01T04:38:41.079Z,10.93
2022-09-01T04:41:09.466Z,10.98
2022-09-01T04:43:36.051Z,10.97
2022-09-01T04:46:03.318Z,10.91
2022-09-01T04:48:31.792Z,10.96
2022-09-01T04:50:58.760Z,10.96
2022-09-01T04:53:28.548Z,10.95
2022-09-01T04:55:55.336Z,10.96
2022-09-01T04:58:22.522Z,11.02
2022-09-01T05:00:52.329Z,11.06
2022-09-01T05:03:22.426Z,11.04
2022-09-01T05:05:49.016Z,11.02
2022-09-01T05:08:20.549Z,11.04
2022-09-01T05:10:53.332Z,11.05
2022-09-01T05:13:20.209Z,11.04
2022-09-01T05:15:47.671Z,11.05
2022-09-01T05:18:24.704Z,11.10
2022-09-01T05:20:52.482Z,11.12
2022-09-01T05:23:20.233Z,11.13
2022-09-01T05:25:53.826Z,11.14
2022-09-01T05:28:24.705Z,11.16
2022-09-01T05:30:54.187Z,11.17
2022-09-01T05:33:22.072Z,11.19
2022-09-01T05:35:55.656Z,11.21
2022-09-01T05:38:24.238Z,11.27
2022-09-01T05:41:04.101Z,11.33
2022-09-01T05:43:31.462Z,11.39
2022-09-01T05:46:06.585Z,11.45
2022-09-01T05:48:40.362Z,11.48
2022-09-01T05:51:22.410Z,11.52
2022-09-01T05:53:58.970Z,11.60
2022-09-01T05:56:30.160Z,11.65
2022-09-01T06:01:50.291Z,11.77
2022-09-01T06:04:17.442Z,11.86
2022-09-01T06:07:05.767Z,11.93
2022-09-01T06:09:38.363Z,11.99
2022-09-01T06:12:06.810Z,12.06
2022-09-01T06:14:34.981Z,12.14
2022-09-01T06:17:03.283Z,12.20
2022-09-01T06:19:34.801Z,12.29
2022-09-01T06:22:02.927Z,12.39
2022-09-01T06:24:29.846Z,12.50
2022-09-01T06:26:56.861Z,12.60
2022-09-01T06:29:23.369Z,12.70
2022-09-01T06:31:52.906Z,12.80
2022-09-01T06:34:20.583Z,12.88
2022-09-01T06:36:49.665Z,12.95
2022-09-01T06:39:22.417Z,13.03
2022-09-01T06:41:53.091Z,13.07
2022-09-01T06:44:23.151Z,13.09
2022-09-01T06:46:51.995Z,13.08
2022-09-01T06:49:21.516Z,13.09
2022-09-01T06:51:52.805Z,13.18
2022-09-01T06:54:21.089Z,13.23
2022-09-01T06:56:51.581Z,13.26
2022-09-01T06:59:20.919Z,13.29
2022-09-01T07:04:39.474Z,13.35
2022-09-01T07:13:04.819Z,13.65
2022-09-01T07:18:14.921Z,13.79
2022-09-01T07:21:36.584Z,13.83
2022-09-01T07:23:46.364Z,13.93
2022-09-01T07:26:26.459Z,14.01
2022-09-01T07:29:00.998Z,14.12
2022-09-01T07:39:53.425Z,14.48
2022-09-01T07:42:30.104Z,13.57
2022-09-01T07:45:26.899Z,14.60
2022-09-01T07:47:54.033Z,14.68
2022-09-01T07:53:09.377Z,14.77
2022-09-01T07:55:41.484Z,14.81
2022-09-01T07:58:10.502Z,14.91
2022-09-01T08:00:38.150Z,15.05
2022-09-01T08:03:04.723Z,15.10
2022-09-01T08:05:32.758Z,15.21
2022-09-01T08:07:59.372Z,15.32
2022-09-01T08:10:25.911Z,15.43
2022-09-01T08:12:59.787Z,15.48
2022-09-01T08:16:06.751Z,15.57
2022-09-01T08:18:14.739Z,15.64
2022-09-01T08:20:45.736Z,15.71
2022-09-01T08:23:19.156Z,15.81
2022-09-01T08:25:47.713Z,15.90
2022-09-01T08:28:15.680Z,16.01
2022-09-01T08:30:52.064Z,16.06
2022-09-01T08:33:19.697Z,16.18
2022-09-01T08:35:49.134Z,16.25
2022-09-01T08:38:16.495Z,16.26
2022-09-01T08:40:51.531Z,16.22
2022-09-01T08:43:51.987Z,16.18
2022-09-01T08:46:35.205Z,16.13
2022-09-01T08:52:18.634Z,16.21
2022-09-01T08:54:49.844Z,16.28
2022-09-01T08:57:35.381Z,16.34
2022-09-01T09:00:02.547Z,16.41
2022-09-01T09:02:41.450Z,16.48
2022-09-01T09:05:26.355Z,16.53
2022-09-01T09:08:29.671Z,16.51
2022-09-01T09:11:04.183Z,16.48
2022-09-01T09:13:52.157Z,16.44
2022-09-01T09:16:25.482Z,16.42
2022-09-01T09:18:57.830Z,16.47
2022-09-01T09:21:33.807Z,16.48
2022-09-01T09:24:29.021Z,16.48
2022-09-01T09:27:04.618Z,16.52
2022-09-01T09:29:33.573Z,16.60
2022-09-01T09:34:56.957Z,16.65
2022-09-01T09:37:29.996Z,16.76
2022-09-01T09:40:18.142Z,16.81
2022-09-01T09:42:56.821Z,16.76
2022-09-01T09:45:36.101Z,16.68
2022-09-01T09:48:30.188Z,16.62
2022-09-01T09:51:16.631Z,16.70
2022-09-01T09:53:43.238Z,16.74
2022-09-01T09:56:15.584Z,16.78
2022-09-01T09:58:44.855Z,16.77
2022-09-01T10:01:17.644Z,16.75
2022-09-01T10:03:54.155Z,16.72
2022-09-01T10:06:33.101Z,16.71
2022-09-01T10:09:02.447Z,16.66
2022-09-01T10:11:42.849Z,16.64
2022-09-01T10:14:52.409Z,16.74
2022-09-01T10:17:26.120Z,16.88
2022-09-01T10:19:58.017Z,17.08
2022-09-01T10:22:25.762Z,17.21
2022-09-01T10:24:52.744Z,17.28
2022-09-01T10:27:24.616Z,17.33
2022-09-01T10:30:14.153Z,17.37
2022-09-01T10:32:54.881Z,17.45
2022-09-01T10:35:27.473Z,17.46
2022-09-01T10:37:55.866Z,17.51
2022-09-01T10:40:31.031Z,17.58
2022-09-01T10:43:05.392Z,17.67
2022-09-01T10:45:35.606Z,17.70
2022-09-01T10:48:30.502Z,17.68
2022-09-01T10:51:19.297Z,17.71
2022-09-01T10:53:51.523Z,17.76
2022-09-01T10:56:44.340Z,17.77
2022-09-01T10:59:33.806Z,17.70
2022-09-01T11:02:26.411Z,17.67
2022-09-01T11:05:00.436Z,17.69
2022-09-01T11:07:57.944Z,17.76
2022-09-01T11:10:35.947Z,17.92
2022-09-01T11:13:14.976Z,17.96
2022-09-01T11:15:44.887Z,17.79
2022-09-01T11:18:27.368Z,17.65
2022-09-01T11:20:56.276Z,17.68
2022-09-01T11:23:31.420Z,17.68
2022-09-01T11:28:46.170Z,17.65
2022-09-01T11:31:21.300Z,17.64
2022-09-01T11:34:13.071Z,17.68
2022-09-01T11:36:49.084Z,17.70
2022-09-01T11:39:20.942Z,17.71
2022-09-01T11:42:03.561Z,17.77
2022-09-01T11:44:48.057Z,17.74
2022-09-01T11:47:21.434Z,17.73
2022-09-01T11:49:58.437Z,17.79
2022-09-01T11:52:30.434Z,17.80
2022-09-01T11:54:58.152Z,17.87
2022-09-01T11:57:28.687Z,17.95
2022-09-01T11:59:58.023Z,18.06
2022-09-01T12:02:26.685Z,18.21
2022-09-01T12:04:56.327Z,18.36
2022-09-01T12:07:32.516Z,18.46
2022-09-01T12:09:59.122Z,18.42
2022-09-01T12:12:35.206Z,18.33
2022-09-01T12:15:07.292Z,18.27
2022-09-01T12:17:35.286Z,18.29
2022-09-01T12:20:28.946Z,18.51
2022-09-01T12:22:58.493Z,18.51
2022-09-01T12:25:27.129Z,18.49
2022-09-01T12:27:54.074Z,18.53
2022-09-01T12:30:22.025Z,18.67
2022-09-01T12:32:49.069Z,18.79
2022-09-01T12:35:25.691Z,18.75
2022-09-01T12:37:53.484Z,18.58
2022-09-01T12:40:36.028Z,18.58
2022-09-01T12:43:02.623Z,18.57
2022-09-01T12:45:46.352Z,18.63
2022-09-01T12:48:42.871Z,18.71
2022-09-01T12:51:29.495Z,18.97
2022-09-01T12:54:04.829Z,19.23
2022-09-01T12:56:36.107Z,19.21
2022-09-01T12:59:16.063Z,19.04
2022-09-01T13:01:44.203Z,19.17
2022-09-01T13:04:30.035Z,19.18
2022-09-01T13:07:05.864Z,19.18
2022-09-01T13:09:32.695Z,19.28
2022-09-01T13:12:21.852Z,19.44
2022-09-01T13:14:48.854Z,19.72
2022-09-01T13:17:15.978Z,19.86
2022-09-01T13:19:42.674Z,19.74
2022-09-01T13:22:09.599Z,19.51
2022-09-01T13:24:36.178Z,19.32
2022-09-01T13:29:50.457Z,19.05
2022-09-01T13:32:20.915Z,18.95
2022-09-01T13:34:51.534Z,18.79
2022-09-01T13:37:20.250Z,18.77
2022-09-01T13:39:47.380Z,18.75
2022-09-01T13:42:15.978Z,18.74
2022-09-01T13:44:44.107Z,18.48
2022-09-01T13:50:09.265Z,18.26
2022-09-01T13:52:37.771Z,18.20
2022-09-01T13:55:05.996Z,18.32
2022-09-01T13:57:36.478Z,18.37
2022-09-01T14:00:06.798Z,18.45
2022-09-01T14:02:35.356Z,18.54
2022-09-01T14:05:01.900Z,18.57
2022-09-01T14:07:30.100Z,18.62
2022-09-01T14:09:56.718Z,18.68
2022-09-01T14:12:23.406Z,18.72
2022-09-01T14:17:38.576Z,18.70
2022-09-01T14:20:07.893Z,18.72
2022-09-01T14:22:38.545Z,18.79
2022-09-01T14:25:06.457Z,18.85
2022-09-01T14:27:33.065Z,18.84
2022-09-01T14:30:00.934Z,18.86
2022-09-01T14:32:27.521Z,18.92
2022-09-01T14:34:54.881Z,18.95
2022-09-01T14:37:22.492Z,18.97
2022-09-01T14:39:50.813Z,18.95
2022-09-01T14:42:19.010Z,18.94
2022-09-01T14:44:47.508Z,18.91
2022-09-01T14:47:18.279Z,18.91
2022-09-01T14:49:46.767Z,18.89
2022-09-01T14:52:14.413Z,18.90
2022-09-01T14:54:45.113Z,18.88
2022-09-01T14:59:59.092Z,18.88
2022-09-01T15:02:26.104Z,18.83
2022-09-01T15:04:52.819Z,18.74
2022-09-01T15:07:20.383Z,18.72
2022-09-01T15:09:47.258Z,18.72
2022-09-01T15:12:13.806Z,18.76
2022-09-01T15:14:40.377Z,18.78
2022-09-01T15:17:07.164Z,18.79
2022-09-01T15:19:34.526Z,18.82
2022-09-01T15:22:01.049Z,18.84
2022-09-01T15:24:27.644Z,18.86
2022-09-01T15:26:55.065Z,18.93
2022-09-01T15:29:21.560Z,18.97
2022-09-01T15:31:48.195Z,19.01
2022-09-01T15:34:14.970Z,19.11
2022-09-01T15:36:42.044Z,19.10
2022-09-01T15:39:10.510Z,19.02
2022-09-01T15:41:37.776Z,18.98
2022-09-01T15:44:07.027Z,18.99
2022-09-01T15:46:35.280Z,19.00
2022-09-01T15:49:07.820Z,19.00
2022-09-01T15:51:42.509Z,19.04
2022-09-01T15:54:18.256Z,19.10
2022-09-01T15:56:45.662Z,19.15
2022-09-01T15:59:12.375Z,19.21
2022-09-01T16:01:41.862Z,19.13
2022-09-01T16:04:14.671Z,19.02
2022-09-01T16:06:44.784Z,18.97
2022-09-01T16:09:12.594Z,19.01
2022-09-01T16:11:40.209Z,19.04
2022-09-01T16:14:07.051Z,19.05
2022-09-01T16:16:47.900Z,19.02
2022-09-01T16:19:39.558Z,19.02
2022-09-01T16:22:30.122Z,18.97
2022-09-01T16:25:01.712Z,18.96
2022-09-01T16:27:34.381Z,18.83
2022-09-01T16:30:11.007Z,18.80
2022-09-01T16:32:42.232Z,18.89
2022-09-01T16:35:09.064Z,18.88
2022-09-01T16:37:54.336Z,18.91
2022-09-01T16:40:45.227Z,18.91
2022-09-01T16:43:31.656Z,18.79
2022-09-01T16:46:07.520Z,18.71
2022-09-01T16:49:18.114Z,18.57
2022-09-01T16:52:09.402Z,18.46
2022-09-01T16:54:59.668Z,18.41
2022-09-01T16:57:30.861Z,18.21
2022-09-01T17:00:04.969Z,18.03
2022-09-01T17:03:01.655Z,17.79
2022-09-01T17:05:33.484Z,17.62
2022-09-01T17:08:06.969Z,17.35
2022-09-01T17:10:41.842Z,17.10
2022-09-01T17:13:28.301Z,16.90
2022-09-01T17:16:07.981Z,16.81
2022-09-01T17:18:44.972Z,16.69
2022-09-01T17:21:22.755Z,16.58
2022-09-01T17:23:58.674Z,16.43
2022-09-01T17:26:29.123Z,16.34
2022-09-01T17:29:06.053Z,16.28
2022-09-01T17:31:47.316Z,16.22
2022-09-01T17:34:25.918Z,16.19
2022-09-01T17:37:29.140Z,16.13
2022-09-01T17:40:08.000Z,16.03
2022-09-01T17:43:04.925Z,15.94
2022-09-01T17:45:55.848Z,15.86
2022-09-01T17:48:38.260Z,15.71
2022-09-01T17:51:35.214Z,15.65
2022-09-01T17:54:28.195Z,15.58
2022-09-01T17:57:11.072Z,15.47
2022-09-01T18:00:07.734Z,15.41
2022-09-01T18:02:58.588Z,15.34
2022-09-01T18:05:26.770Z,15.21
2022-09-01T18:08:01.316Z,15.03
2022-09-01T18:10:34.253Z,14.83
2022-09-01T18:13:04.353Z,14.77
2022-09-01T18:15:43.219Z,14.60
2022-09-01T18:18:27.714Z,14.53
2022-09-01T18:21:16.712Z,14.39
2022-09-01T18:23:44.442Z,14.29
2022-09-01T18:26:33.001Z,14.27
2022-09-01T18:29:02.187Z,14.14
2022-09-01T18:31:34.911Z,13.98
2022-09-01T18:34:07.520Z,13.87
2022-09-01T18:37:11.462Z,13.76
2022-09-01T18:39:47.144Z,13.55
2022-09-01T18:42:16.538Z,13.56
2022-09-01T18:45:07.732Z,13.46
2022-09-01T18:47:41.364Z,13.27
2022-09-01T18:50:23.600Z,13.12
2022-09-01T18:52:52.932Z,13.02
2022-09-01T18:55:25.396Z,12.98
2022-09-01T18:57:56.195Z,12.93
2022-09-01T19:00:35.963Z,12.79
2022-09-01T19:03:21.221Z,12.68
2022-09-01T19:06:00.023Z,12.66
2022-09-01T19:08:51.975Z,12.59
2022-09-01T19:11:36.974Z,12.50
2022-09-01T19:14:10.957Z,12.38
2022-09-01T19:16:55.702Z,12.29
2022-09-01T19:19:43.731Z,12.22
2022-09-01T19:22:21.032Z,12.20
2022-09-01T19:24:53.983Z,12.07
2022-09-01T19:27:28.354Z,12.02
2022-09-01T19:29:59.047Z,12.00
2022-09-01T19:32:28.738Z,11.93
2022-09-01T19:35:06.424Z,11.90
2022-09-01T19:37:33.140Z,11.77
2022-09-01T19:40:01.017Z,11.66
2022-09-01T19:42:40.659Z,11.61
2022-09-01T19:45:21.940Z,11.57
2022-09-01T19:47:54.310Z,11.45
2022-09-01T19:50:46.714Z,11.36
2022-09-01T19:53:37.561Z,11.35
2022-09-01T19:56:13.346Z,11.23
2022-09-01T19:58:55.754Z,11.17
2022-09-01T20:02:17.212Z,11.12
2022-09-01T20:04:43.834Z,10.98
2022-09-01T20:07:23.979Z,10.91
2022-09-01T20:10:15.693Z,10.80
2022-09-01T20:13:07.176Z,10.79
2022-09-01T20:15:44.993Z,10.75
2022-09-01T20:18:36.426Z,10.67
2022-09-01T20:21:10.605Z,10.62
2022-09-01T20:24:07.616Z,10.53
2022-09-01T20:26:54.563Z,10.47
2022-09-01T20:29:36.336Z,10.47
2022-09-01T20:32:04.133Z,10.44
2022-09-01T20:34:48.502Z,10.40
2022-09-01T20:37:26.931Z,10.34
2022-09-01T20:40:04.898Z,10.27
2022-09-01T20:42:59.254Z,10.24
2022-09-01T20:45:28.018Z,10.23
2022-09-01T20:48:03.050Z,10.20
2022-09-01T20:50:48.048Z,10.18
2022-09-01T20:53:36.402Z,10.07
2022-09-01T20:56:16.200Z,10.09
2022-09-01T20:58:45.455Z,10.09
2022-09-01T21:01:31.824Z,10.05
2022-09-01T21:04:09.458Z,9.97
2022-09-01T21:06:49.105Z,9.95
2022-09-01T21:09:22.946Z,9.89
2022-09-01T21:12:02.606Z,9.80
2022-09-01T21:14:46.970Z,9.72
2022-09-01T21:17:40.195Z,9.65
2022-09-01T21:20:12.802Z,9.58
2022-09-01T21:22:39.734Z,9.58
2022-09-01T21:25:06.597Z,9.53
2022-09-01T21:27:52.642Z,9.52
2022-09-01T21:30:20.408Z,9.52
2022-09-01T21:32:47.283Z,9.49
2022-09-01T21:35:16.966Z,9.50
2022-09-01T21:37:43.561Z,9.47
2022-09-01T21:40:11.468Z,9.49
2022-09-01T21:43:01.282Z,9.45
2022-09-01T21:45:28.099Z,9.38
2022-09-01T21:47:54.770Z,9.29
2022-09-01T21:50:24.606Z,9.31
2022-09-01T21:52:51.282Z,9.32
2022-09-01T21:55:22.728Z,9.24
2022-09-01T21:57:50.374Z,9.26
2022-09-01T22:00:22.170Z,9.25
2022-09-01T22:02:49.330Z,9.26
2022-09-01T22:05:16.020Z,9.27
2022-09-01T22:07:45.487Z,9.24
2022-09-01T22:10:17.742Z,9.18
2022-09-01T22:12:46.244Z,9.13
2022-09-01T22:15:16.964Z,9.10
2022-09-01T22:17:44.925Z,9.06
2022-09-01T22:20:14.135Z,9.06
2022-09-01T22:22:40.953Z,8.98
2022-09-01T22:25:10.606Z,8.94
2022-09-01T22:27:37.436Z,8.94
2022-09-01T22:30:06.078Z,8.92
2022-09-01T22:32:36.202Z,8.89
2022-09-01T22:35:04.807Z,8.88
2022-09-01T22:37:31.354Z,8.82
2022-09-01T22:39:57.869Z,8.85
2022-09-01T22:42:25.038Z,8.81
2022-09-01T22:44:51.569Z,8.76
2022-09-01T22:47:18.158Z,8.76
2022-09-01T22:49:44.803Z,8.67
2022-09-01T22:52:11.490Z,8.60
2022-09-01T22:54:40.570Z,8.57
2022-09-01T22:57:07.115Z,8.53
2022-09-01T22:59:33.906Z,8.56
2022-09-01T23:02:02.007Z,8.53
2022-09-01T23:04:32.033Z,8.52
2022-09-01T23:06:58.875Z,8.50
2022-09-01T23:09:25.740Z,8.47
2022-09-01T23:11:52.799Z,8.42
2022-09-01T23:14:19.427Z,8.39
2022-09-01T23:16:47.331Z,8.38
2022-09-01T23:19:19.366Z,8.37
2022-09-01T23:21:47.736Z,8.36
2022-09-01T23:24:14.819Z,8.35
2022-09-01T23:26:41.789Z,8.36
2022-09-01T23:29:09.286Z,8.33
2022-09-01T23:31:38.280Z,8.27
2022-09-01T23:34:06.686Z,8.23
2022-09-01T23:36:33.800Z,8.25
2022-09-01T23:39:00.992Z,8.23
2022-09-01T23:41:31.247Z,8.23
2022-09-01T23:44:01.475Z,8.18
2022-09-01T23:46:31.897Z,8.14
2022-09-01T23:48:59.073Z,8.12
2022-09-01T23:51:26.246Z,8.10
2022-09-01T23:53:53.419Z,8.12
2022-09-01T23:56:25.835Z,8.12
2022-09-01T23:58:52.839Z,8.15
